Time,TemperatureF,DewpointF,PressureIn,WindDirection,WindDirectionDegrees,WindSpeedMPH,WindSpeedGustMPH,Humidity,HourlyPrecipIn,Conditions,Clouds,dailyrainin,SolarRadiationWatts/m^2,SoftwareType,DateUTC
2013-06-19 00:53:00,58.0,-6.0,-100.00,ESE,104,5.0,15.0,7,0.00,,,0.00,0.000000,,2013-06-19 07:53:00,
2013-06-19 01:22:00,58.0,-6.0,-100.00,ESE,104,5.0,15.0,7,0.00,,,0.00,0.000000,,2013-06-19 08:22:00,
2013-06-19 01:33:00,58.0,-6.0,-100.00,ESE,104,5.0,15.0,7,0.00,,,0.00,0.000000,,2013-06-19 08:33:00,
2013-06-19 01:43:00,58.0,-6.0,-100.00,ESE,104,5.0,15.0,7,0.00,,,0.00,0.000000,,2013-06-19 08:43:00,
2013-06-19 02:11:00,57.0,-6.0,-100.00,SSE,152,5.0,16.0,7,0.00,,,0.00,0.000000,,2013-06-19 09:11:00,
2013-06-19 02:22:00,57.0,-6.0,-100.00,SSE,152,5.0,16.0,7,0.00,,,0.00,0.000000,,2013-06-19 09:22:00,
2013-06-19 02:34:00,57.0,-6.0,-100.00,SSE,152,5.0,16.0,7,0.00,,,0.00,0.000000,,2013-06-19 09:34:00,
2013-06-19 03:22:00,57.0,8.0,-100.00,NNE,33,6.0,18.0,14,0.00,,,0.00,0.000000,,2013-06-19 10:22:00,
2013-06-19 03:33:00,57.0,8.0,-100.00,NNE,33,6.0,18.0,14,0.00,,,0.00,0.000000,,2013-06-19 10:33:00,
2013-06-19 03:42:00,57.0,8.0,-100.00,NNE,33,6.0,18.0,14,0.00,,,0.00,0.000000,,2013-06-19 10:42:00,
2013-06-19 03:53:00,56.0,13.0,-100.00,NE,46,5.0,16.0,18,0.00,,,0.00,0.000000,,2013-06-19 10:53:00,
2013-06-19 04:22:00,56.0,13.0,-100.00,NE,46,5.0,16.0,18,0.00,,,0.00,0.000000,,2013-06-19 11:22:00,
2013-06-19 04:33:00,56.0,13.0,-100.00,NE,46,5.0,16.0,18,0.00,,,0.00,0.000000,,2013-06-19 11:33:00,
2013-06-19 04:42:00,56.0,13.0,-100.00,NE,46,5.0,16.0,18,0.00,,,0.00,0.000000,,2013-06-19 11:42:00,
2013-06-19 05:11:00,56.0,14.0,-100.00,ENE,61,5.0,16.0,19,0.00,,,0.00,0.000000,,2013-06-19 12:11:00,
2013-06-19 05:22:00,56.0,14.0,-100.00,ENE,61,5.0,16.0,19,0.00,,,0.00,0.000000,,2013-06-19 12:22:00,
2013-06-19 05:34:00,56.0,14.0,-100.00,ENE,61,5.0,16.0,19,0.00,,,0.00,0.000000,,2013-06-19 12:34:00,
2013-06-19 05:44:00,56.0,14.0,-100.00,ENE,61,5.0,16.0,19,0.00,,,0.00,0.000000,,2013-06-19 12:44:00,
2013-06-19 05:52:00,56.0,14.0,-100.00,ENE,61,5.0,16.0,19,0.00,,,0.00,0.000000,,2013-06-19 12:52:00,
2013-06-19 05:53:00,57.0,14.0,-100.00,NNE,23,4.0,11.0,18,0.00,,,0.00,4.000000,,2013-06-19 12:53:00,
2013-06-19 06:22:00,57.0,14.0,-100.00,NNE,23,4.0,11.0,18,0.00,,,0.00,4.000000,,2013-06-19 13:22:00,
2013-06-19 06:33:00,57.0,14.0,-100.00,NNE,23,4.0,11.0,18,0.00,,,0.00,4.000000,,2013-06-19 13:33:00,
2013-06-19 06:42:00,57.0,14.0,-100.00,NNE,23,4.0,11.0,18,0.00,,,0.00,4.000000,,2013-06-19 13:42:00,
2013-06-19 07:11:00,59.0,5.0,-100.00,NE,37,5.0,11.0,11,0.00,,,0.00,28.000000,,2013-06-19 14:11:00,
2013-06-19 09:53:00,69.0,5.0,-100.00,East,99,3.0,11.0,8,0.00,,,0.00,760.000000,,2013-06-19 16:53:00,
2013-06-19 11:23:00,69.0,14.0,-100.00,East,98,4.0,10.0,12,0.00,,,0.00,912.000000,,2013-06-19 18:23:00,
2013-06-19 11:33:00,69.0,14.0,-100.00,East,98,4.0,10.0,12,0.00,,,0.00,912.000000,,2013-06-19 18:33:00,
2013-06-19 11:44:00,69.0,14.0,-100.00,East,98,4.0,10.0,12,0.00,,,0.00,912.000000,,2013-06-19 18:44:00,
2013-06-19 11:52:00,69.0,14.0,-100.00,East,98,4.0,10.0,12,0.00,,,0.00,912.000000,,2013-06-19 18:52:00,
2013-06-19 12:11:00,69.0,25.0,-100.00,ESE,108,5.0,8.0,19,0.00,,,0.00,1005.000000,,2013-06-19 19:11:00,
2013-06-19 12:22:00,69.0,25.0,-100.00,ESE,108,5.0,8.0,19,0.00,,,0.00,1005.000000,,2013-06-19 19:22:00,
2013-06-19 12:32:00,69.0,25.0,-100.00,ESE,108,5.0,8.0,19,0.00,,,0.00,1005.000000,,2013-06-19 19:32:00,
2013-06-19 12:43:00,69.0,25.0,-100.00,ESE,108,5.0,8.0,19,0.00,,,0.00,1005.000000,,2013-06-19 19:43:00,
2013-06-19 12:52:00,69.0,25.0,-100.00,ESE,108,5.0,8.0,19,0.00,,,0.00,1005.000000,,2013-06-19 19:52:00,
2013-06-19 13:22:00,70.0,29.0,-100.00,East,90,4.0,9.0,22,0.00,,,0.00,1041.000000,,2013-06-19 20:22:00,
2013-06-19 13:33:00,70.0,29.0,-100.00,East,90,4.0,9.0,22,0.00,,,0.00,1041.000000,,2013-06-19 20:33:00,
2013-06-19 13:42:00,70.0,29.0,-100.00,East,90,4.0,9.0,22,0.00,,,0.00,1041.000000,,2013-06-19 20:42:00,
2013-06-19 13:52:00,70.0,29.0,-100.00,East,90,4.0,9.0,22,0.00,,,0.00,1041.000000,,2013-06-19 20:52:00,
2013-06-19 14:22:00,70.0,33.0,-100.00,ENE,70,4.0,7.0,25,0.00,,,0.00,1027.000000,,2013-06-19 21:22:00,
2013-06-19 14:33:00,70.0,33.0,-100.00,ENE,70,4.0,7.0,25,0.00,,,0.00,1027.000000,,2013-06-19 21:33:00,
2013-06-19 14:44:00,70.0,33.0,-100.00,ENE,70,4.0,7.0,25,0.00,,,0.00,1027.000000,,2013-06-19 21:44:00,
2013-06-19 14:52:00,70.0,33.0,-100.00,ENE,70,4.0,7.0,25,0.00,,,0.00,1027.000000,,2013-06-19 21:52:00,
2013-06-19 15:22:00,69.0,33.0,-100.00,NNE,26,4.0,7.0,26,0.00,,,0.00,953.000000,,2013-06-19 22:22:00,
2013-06-19 15:34:00,69.0,33.0,-100.00,NNE,26,4.0,7.0,26,0.00,,,0.00,953.000000,,2013-06-19 22:34:00,
2013-06-19 15:42:00,69.0,33.0,-100.00,NNE,26,4.0,7.0,26,0.00,,,0.00,953.000000,,2013-06-19 22:42:00,
2013-06-19 16:23:00,67.0,28.0,-100.00,North,6,3.0,6.0,23,0.00,,,0.00,718.000000,,2013-06-19 23:23:00,
2013-06-19 16:33:00,67.0,28.0,-100.00,North,6,3.0,6.0,23,0.00,,,0.00,718.000000,,2013-06-19 23:33:00,
2013-06-19 16:43:00,67.0,28.0,-100.00,North,6,3.0,6.0,23,0.00,,,0.00,718.000000,,2013-06-19 23:43:00,
2013-06-19 16:52:00,67.0,28.0,-100.00,North,6,3.0,6.0,23,0.00,,,0.00,718.000000,,2013-06-19 23:52:00,
2013-06-19 17:22:00,63.0,27.0,-100.00,ENE,70,3.0,6.0,25,0.00,,,0.00,161.000000,,2013-06-20 00:22:00,
2013-06-19 17:33:00,63.0,27.0,-100.00,ENE,70,3.0,6.0,25,0.00,,,0.00,161.000000,,2013-06-20 00:33:00,
2013-06-19 17:44:00,63.0,27.0,-100.00,ENE,70,3.0,6.0,25,0.00,,,0.00,161.000000,,2013-06-20 00:44:00,
2013-06-19 17:52:00,63.0,27.0,-100.00,ENE,70,3.0,6.0,25,0.00,,,0.00,161.000000,,2013-06-20 00:52:00,
2013-06-19 18:22:00,61.0,26.0,-100.00,NNE,24,2.0,7.0,26,0.00,,,0.00,115.000000,,2013-06-20 01:22:00,
2013-06-19 18:33:00,61.0,26.0,-100.00,NNE,24,2.0,7.0,26,0.00,,,0.00,115.000000,,2013-06-20 01:33:00,
2013-06-19 18:44:00,61.0,26.0,-100.00,NNE,24,2.0,7.0,26,0.00,,,0.00,115.000000,,2013-06-20 01:44:00,
2013-06-19 18:52:00,61.0,26.0,-100.00,NNE,24,2.0,7.0,26,0.00,,,0.00,115.000000,,2013-06-20 01:52:00,
2013-06-19 19:52:00,58.0,16.0,-100.00,NNE,31,2.0,5.0,19,0.00,,,0.00,66.000000,,2013-06-20 02:52:00,
2013-06-19 19:53:00,56.0,19.0,-100.00,West,271,2.0,4.0,23,0.00,,,0.00,10.000000,,2013-06-20 02:53:00,